Time;durP1;ratioP1;P1;durP2;ratioP2;P2;SDS_P1;SDS_P2;PMS_P1;PMS_P2;Temp;Humidity;BMP_temperature;BMP_pressure;BME280_temperature;BME280_humidity;BME280_pressure;Samples;Min_cycle;Max_cycle;Signal;HPM_P1;HPM_P2
2024/01/09 00:01:28;;;;;;;26.00;23.83;;;-6.80;99.90;;;;;;5007296;28;20049;-78
2024/01/09 00:04:01;;;;;;;26.95;24.73;;;-6.70;99.90;;;;;;5021318;28;20042;-78
2024/01/09 00:06:31;;;;;;;27.20;24.75;;;-6.80;99.90;;;;;;5020155;28;20080;-78
2024/01/09 00:08:59;;;;;;;27.58;25.15;;;-6.80;99.90;;;;;;5041474;28;20033;-80
2024/01/09 00:11:26;;;;;;;27.10;24.58;;;-6.80;99.90;;;;;;5004837;28;21129;-79
2024/01/09 00:14:01;;;;;;;26.85;24.38;;;-6.90;99.90;;;;;;5016070;28;20760;-80
2024/01/09 00:16:35;;;;;;;26.08;24.02;;;-6.90;99.90;;;;;;5013598;28;20059;-80
2024/01/09 00:19:02;;;;;;;28.27;25.70;;;-6.90;99.90;;;;;;5031178;28;20045;-80
2024/01/09 00:21:29;;;;;;;27.33;24.60;;;-6.80;99.90;;;;;;5018088;28;20044;-80
2024/01/09 00:23:56;;;;;;;26.52;24.23;;;-6.90;99.90;;;;;;5004408;28;20064;-79
2024/01/09 00:26:23;;;;;;;27.65;24.98;;;-6.90;99.90;;;;;;5028645;28;20274;-79
2024/01/09 00:28:53;;;;;;;26.17;23.60;;;-6.90;99.90;;;;;;5015550;28;20037;-78
2024/01/09 00:31:26;;;;;;;28.48;25.85;;;-6.80;99.90;;;;;;5029151;28;21223;-79
2024/01/09 00:33:57;;;;;;;30.85;27.73;;;-7.00;99.90;;;;;;5046610;28;20043;-79
2024/01/09 00:36:25;;;;;;;27.92;25.23;;;-7.00;99.90;;;;;;5061285;28;20048;-78
2024/01/09 00:39:07;;;;;;;27.30;24.65;;;-7.00;99.90;;;;;;5032384;28;20683;-78
2024/01/09 00:41:35;;;;;;;27.02;24.63;;;-7.00;99.90;;;;;;5044506;28;20052;-79
2024/01/09 00:44:02;;;;;;;27.83;25.38;;;-7.00;99.90;;;;;;5032332;28;20044;-78
2024/01/09 00:46:31;;;;;;;29.50;26.50;;;-7.00;99.90;;;;;;5031679;28;20049;-79
2024/01/09 00:49:07;;;;;;;26.88;24.38;;;-6.90;99.90;;;;;;5035940;28;20036;-79
2024/01/09 00:51:44;;;;;;;27.63;25.35;;;-7.00;99.90;;;;;;5032135;28;20041;-78
2024/01/09 00:54:15;;;;;;;26.48;24.17;;;-7.00;99.90;;;;;;5032968;28;20044;-78
2024/01/09 00:56:43;;;;;;;27.35;24.67;;;-7.00;99.90;;;;;;5019408;28;20040;-79
2024/01/09 00:59:31;;;;;;;25.65;23.25;;;-7.00;99.90;;;;;;5037301;28;20099;-79
2024/01/09 01:02:06;;;;;;;27.63;25.00;;;-7.00;99.90;;;;;;5028573;28;21653;-79
2024/01/09 01:04:37;;;;;;;27.60;24.90;;;-7.00;99.90;;;;;;5023353;28;20596;-79
2024/01/09 01:07:05;;;;;;;28.52;25.75;;;-7.00;99.90;;;;;;5019756;28;20029;-79
2024/01/09 01:09:32;;;;;;;29.45;26.40;;;-7.00;99.90;;;;;;5030936;28;20055;-78
2024/01/09 01:11:59;;;;;;;28.27;25.45;;;-7.10;99.90;;;;;;5016219;28;20274;-80
2024/01/09 01:14:38;;;;;;;27.67;25.10;;;-7.10;99.90;;;;;;5026671;28;20159;-79
2024/01/09 01:17:14;;;;;;;26.33;24.05;;;-7.10;99.90;;;;;;5018169;28;20579;-78
2024/01/09 01:19:41;;;;;;;25.98;23.70;;;-7.10;99.90;;;;;;5033560;28;20063;-79
2024/01/09 01:22:10;;;;;;;27.23;24.75;;;-7.10;99.90;;;;;;5007560;28;20147;-79
2024/01/09 01:24:39;;;;;;;28.58;25.75;;;-7.10;99.90;;;;;;5032762;28;20091;-80
2024/01/09 01:27:08;;;;;;;28.40;25.88;;;-7.20;99.90;;;;;;5033643;28;20037;-79
2024/01/09 01:29:40;;;;;;;26.67;24.23;;;-7.20;99.90;;;;;;5003919;28;20049;-79
2024/01/09 01:32:10;;;;;;;28.77;26.08;;;-7.20;99.90;;;;;;5011295;28;20057;-79
2024/01/09 01:34:45;;;;;;;29.45;26.60;;;-7.20;99.90;;;;;;5016030;28;20048;-79
2024/01/09 01:37:13;;;;;;;29.90;26.55;;;-7.20;99.90;;;;;;5034108;28;20076;-79
2024/01/09 01:39:43;;;;;;;29.05;26.05;;;-7.20;99.90;;;;;;5052012;28;20119;-79
2024/01/09 01:42:13;;;;;;;27.92;25.27;;;-7.30;99.90;;;;;;5019136;28;20127;-77
2024/01/09 01:44:40;;;;;;;29.63;26.60;;;-7.30;99.90;;;;;;5017044;28;20049;-80
2024/01/09 01:47:10;;;;;;;28.38;25.48;;;-7.30;99.90;;;;;;5030309;28;20063;-79
2024/01/09 01:49:38;;;;;;;27.13;24.42;;;-7.30;99.90;;;;;;5027034;28;20106;-79
2024/01/09 01:52:06;;;;;;;28.92;26.13;;;-7.30;99.90;;;;;;5034580;28;20057;-79
2024/01/09 01:54:39;;;;;;;28.13;25.38;;;-7.30;99.90;;;;;;5043964;28;20044;-79
2024/01/09 01:57:07;;;;;;;29.63;26.52;;;-7.40;99.90;;;;;;5003527;28;20036;-79
2024/01/09 01:59:38;;;;;;;28.52;25.30;;;-7.40;99.90;;;;;;5017383;28;20055;-78
2024/01/09 02:02:06;;;;;;;29.02;26.30;;;-7.40;99.90;;;;;;5005777;28;20053;-80
2024/01/09 02:04:34;;;;;;;26.98;24.83;;;-7.40;99.90;;;;;;5015163;28;20681;-79
2024/01/09 02:07:01;;;;;;;26.75;24.08;;;-7.50;99.90;;;;;;5014546;28;20112;-79
2024/01/09 02:09:30;;;;;;;25.88;23.70;;;-7.40;99.90;;;;;;5031149;28;20052;-80
2024/01/09 02:11:59;;;;;;;29.55;26.50;;;-7.40;99.90;;;;;;5018568;28;20066;-79
2024/01/09 02:14:27;;;;;;;28.65;25.75;;;-7.40;99.90;;;;;;5015010;28;20041;-77
2024/01/09 02:16:57;;;;;;;29.50;26.45;;;-7.40;99.90;;;;;;5033244;28;20041;-80
2024/01/09 02:19:30;;;;;;;30.67;27.58;;;-7.40;99.90;;;;;;5030999;28;20053;-78
2024/01/09 02:21:58;;;;;;;;;;;-7.50;99.90;;;;;;5030177;28;20256;-79
2024/01/09 02:24:32;;;;;;;26.65;24.25;;;-7.40;99.90;;;;;;5021694;28;19974;-79
2024/01/09 02:27:26;;;;;;;30.38;27.08;;;-7.40;99.90;;;;;;5011459;28;20045;-79
2024/01/09 02:29:53;;;;;;;29.05;26.23;;;-7.50;99.90;;;;;;5013480;28;20126;-78
2024/01/09 02:32:29;;;;;;;26.80;24.50;;;-7.50;99.90;;;;;;5033634;28;20072;-79
2024/01/09 02:34:59;;;;;;;28.35;25.40;;;-7.50;99.90;;;;;;5012903;28;20105;-79
2024/01/09 02:37:26;;;;;;;28.15;25.23;;;-7.40;99.90;;;;;;5019479;28;20045;-78
2024/01/09 02:39:53;;;;;;;28.17;25.45;;;-7.60;99.90;;;;;;5031546;28;20048;-78
2024/01/09 02:42:25;;;;;;;27.30;24.90;;;-7.60;99.90;;;;;;5032429;28;20049;-77
2024/01/09 02:44:54;;;;;;;29.77;27.08;;;-7.60;99.90;;;;;;5010159;28;20052;-79
2024/01/09 02:47:28;;;;;;;27.80;25.02;;;-7.60;99.90;;;;;;5029360;28;20137;-78
2024/01/09 02:50:00;;;;;;;29.77;26.75;;;-7.60;99.90;;;;;;5033731;28;20051;-79
2024/01/09 02:52:30;;;;;;;26.55;24.02;;;-7.60;99.90;;;;;;5001678;28;20065;-78
2024/01/09 02:55:00;;;;;;;30.17;26.13;;;-7.60;99.90;;;;;;5008147;28;20051;-80
2024/01/09 02:57:27;;;;;;;28.48;25.92;;;-7.60;99.90;;;;;;5008314;28;20055;-78
2024/01/09 03:00:00;;;;;;;28.15;25.58;;;-7.60;99.90;;;;;;5047478;28;20068;-78
2024/01/09 03:02:35;;;;;;;28.90;25.98;;;-7.60;99.90;;;;;;4989954;28;20558;-79
2024/01/09 03:05:11;;;;;;;26.70;24.13;;;-7.60;99.90;;;;;;5025554;28;20044;-79
2024/01/09 03:07:46;;;;;;;32.15;28.25;;;-7.70;99.90;;;;;;5015227;28;20103;-79
2024/01/09 03:10:13;;;;;;;34.85;28.23;;;-7.70;99.90;;;;;;5024350;28;20408;-80
2024/01/09 03:12:40;;;;;;;33.75;28.10;;;-7.60;99.90;;;;;;5019698;28;20661;-79
2024/01/09 03:15:09;;;;;;;33.45;29.98;;;-7.60;99.90;;;;;;5032930;28;20087;-78
2024/01/09 03:17:36;;;;;;;35.58;28.52;;;-7.60;99.90;;;;;;5030689;28;20175;-78
2024/01/09 03:20:03;;;;;;;33.15;27.88;;;-7.60;99.90;;;;;;5036239;28;20048;-79
2024/01/09 03:22:30;;;;;;;31.23;28.02;;;-7.70;99.90;;;;;;5025466;28;20662;-78
2024/01/09 03:24:57;;;;;;;34.58;28.13;;;-7.70;99.90;;;;;;5023382;28;20141;-79
2024/01/09 03:27:25;;;;;;;27.50;24.90;;;-7.70;99.90;;;;;;5019463;28;20464;-77
2024/01/09 03:29:53;;;;;;;31.55;28.17;;;-7.70;99.90;;;;;;5021166;28;20292;-79
2024/01/09 03:32:20;;;;;;;33.13;29.33;;;-7.80;99.90;;;;;;5029120;28;20045;-78
2024/01/09 03:34:47;;;;;;;28.98;25.90;;;-7.80;99.90;;;;;;5022819;28;20946;-78
2024/01/09 03:37:14;;;;;;;31.15;26.63;;;-7.80;99.90;;;;;;5035474;28;20049;-80
2024/01/09 03:39:45;;;;;;;26.60;24.08;;;-7.80;99.90;;;;;;5031434;28;20084;-77
2024/01/09 03:42:12;;;;;;;29.13;26.10;;;-7.70;99.90;;;;;;5012308;28;20644;-79
2024/01/09 03:44:39;;;;;;;29.95;27.10;;;-7.80;99.90;;;;;;5017726;28;20052;-79
2024/01/09 03:47:06;;;;;;;30.20;26.15;;;-7.80;99.90;;;;;;5021891;28;20053;-78
2024/01/09 03:49:33;;;;;;;31.17;27.90;;;-7.70;99.90;;;;;;5032732;28;20420;-79
2024/01/09 03:52:00;;;;;;;32.72;28.02;;;-7.70;99.90;;;;;;5022884;28;20041;-79
2024/01/09 03:54:54;;;;;;;28.40;25.45;;;-7.80;99.90;;;;;;5031766;28;20043;-77
2024/01/09 03:57:22;;;;;;;29.58;26.38;;;-7.70;99.90;;;;;;5017273;28;20053;-78
2024/01/09 03:59:48;;;;;;;30.08;27.23;;;-7.90;99.90;;;;;;5032059;28;20092;-78
2024/01/09 04:02:16;;;;;;;35.85;28.55;;;-7.90;99.90;;;;;;5036371;28;20069;-80
2024/01/09 04:04:43;;;;;;;36.28;28.58;;;-7.90;99.90;;;;;;5029348;28;20056;-78
2024/01/09 04:07:09;;;;;;;32.58;28.27;;;-7.90;99.90;;;;;;5010386;28;20051;-79
2024/01/09 04:09:43;;;;;;;35.60;30.08;;;-7.90;99.90;;;;;;5030099;28;20279;-78
2024/01/09 04:12:12;;;;;;;33.47;28.60;;;-7.90;99.90;;;;;;5013805;28;20764;-80
2024/01/09 04:14:45;;;;;;;33.92;29.17;;;-7.90;99.90;;;;;;5031840;28;20067;-78
2024/01/09 04:17:12;;;;;;;33.42;27.50;;;-8.00;99.90;;;;;;5032565;28;20314;-78
2024/01/09 04:19:45;;;;;;;34.95;30.42;;;-8.00;99.90;;;;;;5034175;28;20103;-78
2024/01/09 04:22:25;;;;;;;;;;;-8.00;99.90;;;;;;5024254;28;20103;-78
2024/01/09 04:24:56;;;;;;;38.83;30.15;;;-8.00;99.90;;;;;;5019325;28;19924;-78
2024/01/09 04:27:25;;;;;;;31.70;28.00;;;-8.20;99.90;;;;;;5027649;28;20110;-77
2024/01/09 04:29:55;;;;;;;36.35;28.63;;;-8.20;99.90;;;;;;5024453;28;20562;-79
2024/01/09 04:32:22;;;;;;;38.08;29.30;;;-8.30;99.90;;;;;;5027305;28;20468;-78
2024/01/09 04:35:03;;;;;;;36.38;29.25;;;-8.20;99.90;;;;;;5011151;28;20103;-79
2024/01/09 04:37:30;;;;;;;33.28;28.75;;;-8.20;99.90;;;;;;5006506;28;20048;-78
2024/01/09 04:39:59;;;;;;;35.47;29.02;;;-8.30;99.90;;;;;;5010700;28;20200;-78
2024/01/09 04:42:27;;;;;;;37.15;29.08;;;-8.30;99.90;;;;;;5010590;28;20041;-78
2024/01/09 04:45:02;;;;;;;37.67;28.88;;;-8.30;99.90;;;;;;5003318;28;20045;-78
2024/01/09 04:47:29;;;;;;;31.25;27.40;;;-8.40;99.90;;;;;;5012783;28;20040;-78
2024/01/09 04:49:59;;;;;;;35.30;30.10;;;-8.40;99.90;;;;;;5005544;28;20064;-78
2024/01/09 04:52:26;;;;;;;33.25;29.63;;;-8.40;99.90;;;;;;5000939;28;20377;-78
2024/01/09 04:55:00;;;;;;;40.97;30.23;;;-8.40;99.90;;;;;;5015411;28;20902;-79
2024/01/09 04:57:30;;;;;;;36.58;30.38;;;-8.40;99.90;;;;;;5027084;28;20057;-77
2024/01/09 04:59:57;;;;;;;36.42;29.92;;;-8.50;99.90;;;;;;5030122;28;20052;-78
2024/01/09 05:02:24;;;;;;;34.95;29.80;;;-8.40;99.90;;;;;;5016678;28;20041;-77
2024/01/09 05:04:57;;;;;;;35.88;29.83;;;-8.40;99.90;;;;;;5025322;28;20039;-77
2024/01/09 05:07:24;;;;;;;38.80;31.00;;;-8.40;99.90;;;;;;5024007;28;20574;-78
2024/01/09 05:09:51;;;;;;;35.22;29.70;;;-8.60;99.90;;;;;;5015344;28;20064;-78
2024/01/09 05:12:21;;;;;;;41.30;29.50;;;-8.60;99.90;;;;;;5010926;28;20688;-78
2024/01/09 05:14:48;;;;;;;39.97;31.40;;;-8.60;99.90;;;;;;5026269;28;20033;-79
2024/01/09 05:17:15;;;;;;;35.72;30.58;;;-8.70;99.90;;;;;;5021337;28;20424;-79
2024/01/09 05:19:48;;;;;;;37.03;29.67;;;-8.80;99.90;;;;;;5007783;28;20409;-78
2024/01/09 05:22:21;;;;;;;37.88;31.08;;;-8.70;99.90;;;;;;5009717;28;20421;-78
2024/01/09 05:24:48;;;;;;;35.70;31.48;;;-8.60;99.90;;;;;;5011504;28;20045;-77
2024/01/09 05:27:15;;;;;;;34.13;29.02;;;-8.60;99.90;;;;;;5029927;28;20041;-79
2024/01/09 05:29:41;;;;;;;33.60;29.77;;;-8.70;99.90;;;;;;5014125;28;20733;-78
2024/01/09 05:32:08;;;;;;;41.05;30.65;;;-8.70;99.90;;;;;;5026029;28;20034;-78
2024/01/09 05:34:44;;;;;;;37.92;30.55;;;-8.70;99.90;;;;;;5008007;28;20728;-78
2024/01/09 05:37:11;;;;;;;31.08;27.98;;;-8.70;99.90;;;;;;5030610;28;20041;-78
2024/01/09 05:39:38;;;;;;;35.13;30.10;;;-8.70;99.90;;;;;;5017247;28;20643;-77
2024/01/09 05:42:05;;;;;;;36.65;30.15;;;-8.70;99.90;;;;;;5026937;28;20583;-78
2024/01/09 05:44:32;;;;;;;39.20;30.52;;;-8.60;99.90;;;;;;5017312;28;20037;-78
2024/01/09 05:46:59;;;;;;;38.97;31.02;;;-8.70;99.90;;;;;;5004273;28;20491;-78
2024/01/09 05:49:26;;;;;;;41.92;31.20;;;-8.70;99.90;;;;;;5030953;28;20088;-79
2024/01/09 05:51:55;;;;;;;36.63;31.30;;;-8.70;99.90;;;;;;5013332;28;21463;-79
2024/01/09 05:54:22;;;;;;;37.15;30.60;;;-8.70;99.90;;;;;;5026294;28;20057;-78
2024/01/09 05:56:53;;;;;;;35.22;29.63;;;-8.80;99.90;;;;;;5014766;28;20040;-78
2024/01/09 05:59:23;;;;;;;39.22;32.00;;;-8.80;99.90;;;;;;5021813;28;20740;-80
2024/01/09 06:01:55;;;;;;;39.05;32.35;;;-8.80;99.90;;;;;;5030281;28;20139;-78
2024/01/09 06:04:22;;;;;;;38.35;31.73;;;-8.90;99.90;;;;;;5027578;28;20041;-78
2024/01/09 06:06:49;;;;;;;40.53;31.52;;;-8.90;99.90;;;;;;5015077;28;20056;-78
2024/01/09 06:09:16;;;;;;;38.72;32.05;;;-8.80;99.90;;;;;;5018837;28;20132;-78
2024/01/09 06:11:46;;;;;;;40.28;31.88;;;-8.80;99.90;;;;;;5020173;28;20044;-78
2024/01/09 06:14:13;;;;;;;45.65;31.67;;;-8.80;99.90;;;;;;5028461;28;20541;-78
2024/01/09 06:16:40;;;;;;;39.33;31.02;;;-8.90;99.90;;;;;;5022836;28;20041;-78
2024/01/09 06:19:07;;;;;;;37.83;30.48;;;-8.80;99.90;;;;;;5026114;28;20080;-78
2024/01/09 06:21:35;;;;;;;40.10;30.65;;;-8.90;99.90;;;;;;5026383;28;20792;-78
2024/01/09 06:24:02;;;;;;;40.10;31.83;;;-8.90;99.90;;;;;;5007261;28;20056;-78
2024/01/09 06:26:29;;;;;;;38.45;29.67;;;-8.90;99.90;;;;;;5017034;28;20142;-78
2024/01/09 06:28:57;;;;;;;38.80;31.17;;;-8.80;99.90;;;;;;4995921;28;20045;-79
2024/01/09 06:31:24;;;;;;;41.70;31.50;;;-8.90;99.90;;;;;;5033818;28;20753;-78
2024/01/09 06:33:53;;;;;;;40.88;30.13;;;-8.90;99.90;;;;;;5025086;28;20060;-78
2024/01/09 06:36:20;;;;;;;37.00;30.95;;;-8.90;99.90;;;;;;5034989;28;20045;-78
2024/01/09 06:38:47;;;;;;;37.83;32.22;;;-8.80;99.90;;;;;;5029224;28;20135;-78
2024/01/09 06:41:26;;;;;;;40.05;30.27;;;-8.80;99.90;;;;;;5021105;28;20143;-79
2024/01/09 06:43:53;;;;;;;34.88;30.73;;;-8.80;99.90;;;;;;5019400;28;20047;-78
2024/01/09 06:46:20;;;;;;;42.00;31.48;;;-8.80;99.90;;;;;;5036597;28;20041;-79
2024/01/09 06:48:47;;;;;;;32.38;28.98;;;-8.80;99.90;;;;;;5036897;28;20049;-78
2024/01/09 06:51:14;;;;;;;37.58;31.13;;;-8.70;99.90;;;;;;5020809;28;20041;-77
2024/01/09 06:53:41;;;;;;;37.40;30.00;;;-8.70;99.90;;;;;;5031393;28;20067;-78
2024/01/09 06:56:09;;;;;;;37.20;30.10;;;-8.70;99.90;;;;;;5010128;28;20095;-78
2024/01/09 06:58:36;;;;;;;31.67;28.38;;;-8.70;99.90;;;;;;5038974;28;20045;-78
2024/01/09 07:01:04;;;;;;;37.20;30.00;;;-8.60;99.90;;;;;;5036427;28;20578;-78
2024/01/09 07:03:31;;;;;;;42.05;29.15;;;-8.60;99.90;;;;;;5030174;28;20049;-78
2024/01/09 07:06:14;;;;;;;38.53;31.20;;;-8.70;99.90;;;;;;5035846;28;20108;-78
2024/01/09 07:08:41;;;;;;;43.88;29.85;;;-8.80;99.90;;;;;;5050970;28;20083;-77
2024/01/09 07:11:08;;;;;;;37.72;31.48;;;-8.70;99.90;;;;;;5040828;28;20556;-78
2024/01/09 07:13:35;;;;;;;36.05;30.58;;;-8.70;99.90;;;;;;5037937;28;20044;-77
2024/01/09 07:16:03;;;;;;;33.42;29.85;;;-8.70;99.90;;;;;;5030330;28;20051;-78
2024/01/09 07:18:30;;;;;;;38.08;31.92;;;-8.70;99.90;;;;;;5039494;28;20045;-79
2024/01/09 07:20:58;;;;;;;35.15;30.13;;;-8.70;99.90;;;;;;5037161;28;20873;-78
2024/01/09 07:23:25;;;;;;;34.83;28.80;;;-8.60;99.90;;;;;;5028694;28;20578;-78
2024/01/09 07:25:52;;;;;;;38.45;30.58;;;-8.70;99.90;;;;;;4991008;28;21029;-78
2024/01/09 07:28:20;;;;;;;35.45;30.15;;;-8.60;99.90;;;;;;5038209;28;20479;-77
2024/01/09 07:30:52;;;;;;;33.95;26.45;;;-8.60;99.90;;;;;;5022439;28;20064;-76
2024/01/09 07:33:19;;;;;;;35.03;29.38;;;-8.60;99.90;;;;;;5033169;28;20713;-77
2024/01/09 07:35:47;;;;;;;37.30;33.28;;;-8.50;99.90;;;;;;5017809;28;20050;-76
2024/01/09 07:38:22;;;;;;;37.92;34.28;;;-8.50;99.90;;;;;;5044092;28;20139;-77
2024/01/09 07:40:53;;;;;;;34.10;28.75;;;-8.50;99.90;;;;;;4996170;28;20056;-76
2024/01/09 07:43:29;;;;;;;32.22;26.73;;;-8.50;99.90;;;;;;5018791;28;20725;-78
2024/01/09 07:45:56;;;;;;;33.83;28.83;;;-8.40;99.90;;;;;;5052164;28;20503;-78
2024/01/09 07:48:28;;;;;;;34.03;30.13;;;-8.40;99.90;;;;;;5036158;28;20122;-76
2024/01/09 07:51:01;;;;;;;36.55;30.13;;;-8.30;99.90;;;;;;5009289;28;20096;-77
2024/01/09 07:53:29;;;;;;;31.27;28.05;;;-8.30;99.90;;;;;;5021601;28;20729;-76
2024/01/09 07:55:56;;;;;;;34.45;30.58;;;-8.30;99.90;;;;;;5010436;28;20044;-77
2024/01/09 07:58:23;;;;;;;34.67;28.27;;;-8.40;99.90;;;;;;5029151;28;20099;-76
2024/01/09 08:00:51;;;;;;;30.25;27.45;;;-8.40;99.90;;;;;;5023466;28;20057;-76
2024/01/09 08:03:23;;;;;;;44.35;30.30;;;-8.30;99.90;;;;;;5009534;28;20054;-78
2024/01/09 08:05:58;;;;;;;29.50;25.80;;;-8.30;99.90;;;;;;5029272;28;20118;-77
2024/01/09 08:08:38;;;;;;;30.13;26.80;;;-8.20;99.90;;;;;;5017310;28;20572;-77
2024/01/09 08:11:05;;;;;;;36.00;32.33;;;-8.10;99.90;;;;;;5002893;28;20075;-77
2024/01/09 08:13:32;;;;;;;37.03;33.75;;;-8.10;99.90;;;;;;5033085;28;20145;-77
2024/01/09 08:16:08;;;;;;;34.70;31.50;;;-8.00;99.90;;;;;;5016307;28;20127;-77
2024/01/09 08:18:38;;;;;;;43.45;39.67;;;-8.10;99.90;;;;;;5039283;28;20036;-77
2024/01/09 08:21:09;;;;;;;41.40;36.60;;;-8.00;99.90;;;;;;4991571;28;20082;-78
2024/01/09 08:23:38;;;;;;;39.60;35.58;;;-8.00;99.90;;;;;;5021843;28;20044;-77
2024/01/09 08:26:05;;;;;;;37.80;34.17;;;-7.90;99.90;;;;;;5027872;28;20045;-78
2024/01/09 08:28:36;;;;;;;36.83;33.15;;;-7.90;99.90;;;;;;5018118;28;20691;-76
2024/01/09 08:31:06;;;;;;;47.25;42.47;;;-7.80;99.90;;;;;;5014332;28;20220;-76
2024/01/09 08:33:36;;;;;;;45.92;41.70;;;-7.80;99.90;;;;;;5033584;28;20051;-77
2024/01/09 08:36:06;;;;;;;45.97;42.17;;;-7.70;99.90;;;;;;5011213;28;20064;-77
2024/01/09 08:38:37;;;;;;;40.58;37.35;;;-7.60;99.90;;;;;;5025728;28;20044;-77
2024/01/09 08:41:05;;;;;;;43.17;39.15;;;-7.50;99.90;;;;;;5013935;28;20039;-77
2024/01/09 08:43:35;;;;;;;38.88;35.67;;;-7.40;99.90;;;;;;5013633;28;21102;-77
2024/01/09 08:46:03;;;;;;;40.83;36.65;;;-7.40;99.90;;;;;;5017991;28;20044;-77
2024/01/09 08:48:33;;;;;;;40.20;36.42;;;-7.20;99.90;;;;;;5032706;28;20063;-77
2024/01/09 08:51:01;;;;;;;43.40;39.75;;;-7.00;99.90;;;;;;5029746;28;20041;-77
2024/01/09 08:53:38;;;;;;;50.53;45.17;;;-6.80;99.90;;;;;;5024205;28;20043;-78
2024/01/09 08:56:08;;;;;;;42.75;38.95;;;-6.50;99.90;;;;;;5029498;28;20045;-77
2024/01/09 08:58:36;;;;;;;44.17;40.15;;;-6.40;99.90;;;;;;5002977;28;20532;-77
2024/01/09 09:01:09;;;;;;;51.92;46.47;;;-6.40;99.90;;;;;;5026242;28;20063;-77
2024/01/09 09:03:37;;;;;;;87.53;73.07;;;-6.50;99.90;;;;;;5036741;28;20054;-77
2024/01/09 09:06:04;;;;;;;49.20;44.50;;;-6.30;99.90;;;;;;5032735;28;20754;-77
2024/01/09 09:08:33;;;;;;;49.95;45.20;;;-6.40;99.90;;;;;;5001216;28;20055;-77
2024/01/09 09:11:06;;;;;;;48.38;43.97;;;-6.10;99.90;;;;;;5010457;28;20118;-77
2024/01/09 09:13:33;;;;;;;48.10;44.33;;;-5.90;99.90;;;;;;5031042;28;20915;-76
2024/01/09 09:16:00;;;;;;;49.33;45.53;;;-5.80;99.90;;;;;;5025015;28;20633;-77
2024/01/09 09:18:36;;;;;;;80.47;73.32;;;-5.80;99.90;;;;;;5029143;28;20543;-77
2024/01/09 09:21:06;;;;;;;55.70;51.05;;;-5.80;99.90;;;;;;5042753;28;20055;-76
2024/01/09 09:23:36;;;;;;;70.63;63.50;;;-5.80;99.90;;;;;;5042259;28;20045;-77
2024/01/09 09:26:05;;;;;;;61.75;56.10;;;-5.80;99.90;;;;;;5012571;28;20143;-76
2024/01/09 09:28:32;;;;;;;51.47;47.42;;;-5.70;99.90;;;;;;5013095;28;20528;-76
2024/01/09 09:31:16;;;;;;;78.20;65.60;;;-5.90;99.90;;;;;;5031079;28;20049;-76
2024/01/09 09:33:44;;;;;;;50.42;46.47;;;-5.90;99.90;;;;;;5023239;28;20116;-77
2024/01/09 09:36:15;;;;;;;52.90;48.60;;;-5.70;99.90;;;;;;5012246;28;20107;-74
2024/01/09 09:38:42;;;;;;;63.42;58.08;;;-5.70;99.90;;;;;;5013903;28;20512;-76
2024/01/09 09:41:16;;;;;;;54.28;50.20;;;-5.70;99.90;;;;;;5012068;28;20075;-74
2024/01/09 09:43:55;;;;;;;57.50;52.85;;;-5.70;99.90;;;;;;5029346;28;20043;-75
2024/01/09 09:46:30;;;;;;;55.30;51.22;;;-5.60;99.90;;;;;;5024634;28;20044;-75
2024/01/09 09:48:57;;;;;;;54.63;50.40;;;-5.60;99.90;;;;;;4989308;28;20680;-76
2024/01/09 09:51:26;;;;;;;55.10;51.13;;;-5.10;99.90;;;;;;5010531;28;20043;-78
2024/01/09 09:53:57;;;;;;;66.07;59.80;;;-4.50;99.90;;;;;;4992796;28;20046;-76
2024/01/09 09:56:25;;;;;;;61.85;56.03;;;-4.20;99.90;;;;;;5006132;28;20047;-76
2024/01/09 09:58:52;;;;;;;60.33;55.13;;;-4.20;99.90;;;;;;5028852;28;20388;-75
2024/01/09 10:01:25;;;;;;;51.80;47.65;;;-4.50;99.90;;;;;;5011900;28;21877;-76
2024/01/09 10:03:58;;;;;;;58.17;53.25;;;-4.80;99.90;;;;;;5006038;28;20048;-77
2024/01/09 10:06:28;;;;;;;55.23;51.13;;;-4.80;99.90;;;;;;5028663;28;20123;-77
2024/01/09 10:09:03;;;;;;;57.60;53.70;;;-4.70;99.90;;;;;;5023315;28;20534;-76
2024/01/09 10:11:36;;;;;;;58.30;54.13;;;-4.50;99.90;;;;;;5013151;28;20045;-76
2024/01/09 10:14:04;;;;;;;62.85;58.03;;;-4.70;99.90;;;;;;5002607;28;20049;-75
2024/01/09 10:16:53;;;;;;;60.78;56.05;;;-4.80;99.90;;;;;;5030432;28;20033;-75
2024/01/09 10:19:27;;;;;;;63.15;58.47;;;-4.70;99.90;;;;;;5021967;28;20415;-77
2024/01/09 10:21:54;;;;;;;61.60;56.88;;;-4.50;99.90;;;;;;4983772;28;20511;-75
2024/01/09 10:24:21;;;;;;;61.97;57.67;;;-4.40;99.90;;;;;;5019229;28;20095;-75
2024/01/09 10:26:54;;;;;;;63.53;59.17;;;-4.30;99.90;;;;;;5003791;28;20051;-76
2024/01/09 10:29:23;;;;;;;67.70;62.47;;;-4.40;99.90;;;;;;4990410;28;20046;-77
2024/01/09 10:31:50;;;;;;;63.78;58.97;;;-4.40;99.90;;;;;;4968292;28;1151967;-76
2024/01/09 10:34:16;;;;;;;68.22;63.80;;;-4.50;99.90;;;;;;5021173;28;20041;-76
2024/01/09 10:36:43;;;;;;;61.55;57.17;;;-4.20;99.90;;;;;;5011317;28;20052;-75
2024/01/09 10:39:11;;;;;;;64.35;59.95;;;-4.10;99.90;;;;;;5052485;28;20506;-76
2024/01/09 10:41:39;;;;;;;54.75;51.08;;;-4.30;99.90;;;;;;5012842;28;20049;-76
2024/01/09 10:44:07;;;;;;;58.38;54.28;;;-4.30;99.90;;;;;;5046136;28;20080;-76
2024/01/09 10:46:36;;;;;;;65.50;60.28;;;-4.40;99.90;;;;;;5031573;28;20041;-76
2024/01/09 10:49:06;;;;;;;56.00;52.47;;;-4.40;99.90;;;;;;5029065;28;20053;-76
2024/01/09 10:51:35;;;;;;;64.32;59.72;;;-4.30;99.90;;;;;;5014385;28;20578;-77
2024/01/09 10:54:07;;;;;;;64.80;60.08;;;-4.20;99.90;;;;;;5029196;28;20037;-77
2024/01/09 10:56:50;;;;;;;59.70;55.45;;;-4.20;99.90;;;;;;5031072;28;20550;-78
2024/01/09 10:59:17;;;;;;;57.88;53.88;;;-4.20;99.90;;;;;;4993014;28;20045;-76
2024/01/09 11:01:47;;;;;;;58.00;53.72;;;-4.30;99.90;;;;;;5007735;28;20041;-76
2024/01/09 11:04:18;;;;;;;;;;;-4.30;99.90;;;;;;5005182;28;20396;-76
2024/01/09 11:06:52;;;;;;;63.03;57.60;;;-4.20;99.90;;;;;;5058669;28;20579;-76
2024/01/09 11:09:22;;;;;;;54.65;50.35;;;-4.30;99.90;;;;;;5013887;28;20431;-76
2024/01/09 11:11:52;;;;;;;65.00;59.25;;;-4.20;99.90;;;;;;5015490;28;20042;-76
2024/01/09 11:14:31;;;;;;;56.05;51.28;;;-4.00;99.90;;;;;;5031590;28;20051;-77
2024/01/09 11:17:05;;;;;;;56.38;51.42;;;-3.90;99.90;;;;;;5020288;28;20049;-77
2024/01/09 11:19:33;;;;;;;56.05;51.50;;;-3.90;99.90;;;;;;5035161;28;20090;-77
2024/01/09 11:22:19;;;;;;;51.50;47.70;;;-3.80;99.90;;;;;;4989718;28;20068;-77
2024/01/09 11:24:56;;;;;;;54.90;50.75;;;-3.90;99.90;;;;;;5024802;28;20084;-78
2024/01/09 11:27:38;;;;;;;75.20;68.68;;;-3.90;99.90;;;;;;5009897;28;20495;-79
2024/01/09 11:30:14;;;;;;;128.27;93.13;;;-3.70;99.90;;;;;;4989341;28;20136;-79
2024/01/09 11:32:41;;;;;;;57.13;52.78;;;-3.50;99.90;;;;;;5023822;28;20406;-78
2024/01/09 11:35:22;;;;;;;56.60;52.38;;;-3.50;99.90;;;;;;5032007;28;20044;-78
2024/01/09 11:37:55;;;;;;;55.55;51.15;;;-3.30;99.90;;;;;;5031624;28;20071;-78
2024/01/09 11:40:25;;;;;;;57.92;53.47;;;-3.20;99.90;;;;;;5039729;28;20051;-79
2024/01/09 11:42:55;;;;;;;59.00;54.40;;;-3.20;99.90;;;;;;5039658;28;20520;-78
2024/01/09 11:45:26;;;;;;;56.72;52.70;;;-3.20;99.90;;;;;;5024633;28;20891;-78
2024/01/09 11:47:59;;;;;;;57.45;53.13;;;-3.00;99.90;;;;;;5030814;28;20051;-79
2024/01/09 11:50:28;;;;;;;;;;;-2.90;99.90;;;;;;5004985;28;20045;-78
2024/01/09 11:53:03;;;;;;;54.50;50.45;;;-3.00;99.90;;;;;;5042685;28;19924;-79
2024/01/09 11:55:37;;;;;;;49.80;46.13;;;-3.10;99.90;;;;;;5025533;28;20776;-79
2024/01/09 11:58:06;;;;;;;50.60;46.92;;;-3.10;99.90;;;;;;5015413;28;20115;-79
2024/01/09 12:00:40;;;;;;;58.90;53.90;;;-2.90;99.90;;;;;;5012106;28;20538;-79
2024/01/09 12:03:09;;;;;;;52.80;48.63;;;-2.90;99.90;;;;;;5036284;28;20337;-79
2024/01/09 12:05:39;;;;;;;51.15;46.60;;;-2.70;99.90;;;;;;5018738;28;20052;-78
2024/01/09 12:08:06;;;;;;;53.17;49.00;;;-2.80;99.90;;;;;;5021009;28;20041;-79
2024/01/09 12:10:47;;;;;;;52.70;48.70;;;-2.60;99.90;;;;;;5001015;28;20040;-80
2024/01/09 12:13:20;;;;;;;53.30;49.05;;;-2.50;99.90;;;;;;4999750;28;20092;-79
2024/01/09 12:16:18;;;;;;;52.60;48.42;;;-2.50;99.90;;;;;;5032754;28;20292;-80
2024/01/09 12:18:52;;;;;;;48.53;44.65;;;-2.60;99.90;;;;;;4983412;28;20148;-80
2024/01/09 12:21:36;;;;;;;50.75;47.10;;;-2.50;99.90;;;;;;5003658;28;20053;-80
2024/01/09 12:24:15;;;;;;;51.97;47.78;;;-2.30;99.90;;;;;;5020017;28;20439;-80
2024/01/09 12:26:56;;;;;;;50.40;46.70;;;-2.20;99.90;;;;;;5015950;28;20464;-79
2024/01/09 12:29:26;;;;;;;49.15;45.80;;;-2.20;99.90;;;;;;5009005;28;20614;-79
2024/01/09 12:31:57;;;;;;;48.22;44.42;;;-2.10;99.90;;;;;;5032493;28;20045;-79
2024/01/09 12:34:27;;;;;;;47.22;43.42;;;-2.10;99.90;;;;;;5014419;28;20144;-79
2024/01/09 12:36:56;;;;;;;48.92;45.42;;;-2.50;99.90;;;;;;5026404;28;20134;-79
2024/01/09 12:39:29;;;;;;;48.53;44.75;;;-2.60;99.90;;;;;;5051532;28;20040;-79
2024/01/09 12:42:15;;;;;;;47.88;43.92;;;-2.70;99.90;;;;;;5010403;28;20528;-80
2024/01/09 12:44:46;;;;;;;46.45;42.53;;;-2.70;99.90;;;;;;5031666;28;20049;-79